Time;durP1;ratioP1;P1;durP2;ratioP2;P2;SDS_P1;SDS_P2;PMS_P1;PMS_P2;Temp;Humidity;BMP_temperature;BMP_pressure;BME280_temperature;BME280_humidity;BME280_pressure;Samples;Min_cycle;Max_cycle;Signal;HPM_P1;HPM_P2
2022/07/04 00:01:58;;;;;;;;;;;;;;;15.15;59.82;101940.56;5014968;28;19948;-94
2022/07/04 00:04:23;;;;;;;;;;;;;;;14.93;59.38;101933.50;5018171;28;19948;-90
2022/07/04 00:06:48;;;;;;;;;;;;;;;14.86;58.01;101937.31;5013236;28;19951;-92
2022/07/04 00:09:13;;;;;;;;;;;;;;;14.72;58.06;101935.22;5011582;28;19928;-92
2022/07/04 00:11:39;;;;;;;;;;;;;;;14.64;62.42;101929.34;5008183;28;19922;-92
2022/07/04 00:14:04;;;;;;;;;;;;;;;14.49;60.72;101935.25;5005576;28;20207;-93
2022/07/04 00:16:29;;;;;;;;;;;;;;;14.38;63.24;101938.31;5006933;28;20001;-91
2022/07/04 00:18:54;;;;;;;;;;;;;;;14.29;61.24;101926.22;5009304;28;19960;-92
2022/07/04 00:21:20;;;;;;;;;;;;;;;14.23;60.97;101929.13;5003344;28;19925;-91
2022/07/04 00:23:45;;;;;;;;;;;;;;;14.23;60.98;101923.81;5009000;28;19925;-93
2022/07/04 00:26:10;;;;;;;;;;;;;;;14.21;59.78;101922.97;5007049;28;19917;-93
2022/07/04 00:28:35;;;;;;;;;;;;;;;14.39;58.65;101918.75;5005000;28;19914;-92
2022/07/04 00:31:01;;;;;;;;;;;;;;;14.58;58.23;101924.25;5006848;28;19917;-94
2022/07/04 00:33:26;;;;;;;;;;;;;;;14.63;57.96;101918.75;5007215;28;19920;-92
2022/07/04 00:35:51;;;;;;;;;;;;;;;14.54;61.15;101922.63;5010342;28;19914;-92
2022/07/04 00:38:16;;;;;;;;;;;;;;;14.40;61.67;101923.13;5006678;28;19917;-93
2022/07/04 00:40:41;;;;;;;;;;;;;;;14.23;62.38;101929.13;5008535;28;19913;-93
2022/07/04 00:43:07;;;;;;;;;;;;;;;14.23;61.77;101933.56;5004107;28;20277;-93
2022/07/04 00:45:32;;;;;;;;;;;;;;;14.26;59.12;101925.47;5006307;28;19928;-92
2022/07/04 00:47:57;;;;;;;;;;;;;;;14.20;62.14;101926.56;5011942;28;19915;-93
2022/07/04 00:50:23;;;;;;;;;;;;;;;14.13;62.13;101916.22;5007375;28;19921;-92
2022/07/04 00:52:48;;;;;;;;;;;;;;;14.10;61.61;101925.19;5010629;28;19960;-94
2022/07/04 00:55:15;;;;;;;;;;;;;;;14.03;63.87;101924.56;5002803;28;19953;-94
2022/07/04 00:57:40;;;;;;;;;;;;;;;13.94;62.96;101922.25;5004314;28;20318;-93
2022/07/04 01:00:05;;;;;;;;;;;;;;;13.91;62.60;101925.00;5010207;28;19921;-92
2022/07/04 01:02:31;;;;;;;;;;;;;;;13.85;60.78;101921.69;5004146;28;19936;-92
2022/07/04 01:04:56;;;;;;;;;;;;;;;13.97;59.95;101915.94;5002874;28;19917;-92
2022/07/04 01:07:22;;;;;;;;;;;;;;;14.16;59.64;101918.75;5005236;28;19917;-91
2022/07/04 01:09:47;;;;;;;;;;;;;;;14.30;59.35;101913.78;5006810;28;19913;-92
2022/07/04 01:12:23;;;;;;;;;;;;;;;14.39;59.43;101913.44;5003618;28;20040;-92
2022/07/04 01:14:48;;;;;;;;;;;;;;;14.22;60.67;101913.19;5008507;28;19940;-93
2022/07/04 01:17:14;;;;;;;;;;;;;;;14.12;60.02;101910.03;5007939;28;19913;-92
2022/07/04 01:19:39;;;;;;;;;;;;;;;13.98;62.58;101910.53;5000511;28;19920;-92
2022/07/04 01:22:06;;;;;;;;;;;;;;;13.84;61.28;101906.66;5006043;28;19940;-93
2022/07/04 01:24:31;;;;;;;;;;;;;;;13.84;60.27;101904.00;5010169;28;19921;-92
2022/07/04 01:26:56;;;;;;;;;;;;;;;13.81;61.42;101898.81;5008613;28;19917;-92
2022/07/04 01:29:21;;;;;;;;;;;;;;;13.83;60.96;101899.63;5004832;28;19917;-92
2022/07/04 01:31:46;;;;;;;;;;;;;;;13.75;60.83;101894.56;5004879;28;20040;-91
2022/07/04 01:34:12;;;;;;;;;;;;;;;13.63;60.85;101898.56;5010065;28;19920;-92
2022/07/04 01:36:37;;;;;;;;;;;;;;;13.61;61.87;101883.56;5005382;28;20008;-92
2022/07/04 01:39:02;;;;;;;;;;;;;;;13.58;62.60;101894.34;5010690;28;20007;-92
2022/07/04 01:41:32;;;;;;;;;;;;;;;13.65;60.51;101893.19;5007824;28;19921;-91
2022/07/04 01:43:57;;;;;;;;;;;;;;;13.82;60.19;101885.47;5005058;28;20399;-92
2022/07/04 01:46:22;;;;;;;;;;;;;;;13.95;59.50;101886.75;5006759;28;19917;-92
2022/07/04 01:48:48;;;;;;;;;;;;;;;14.01;59.42;101878.53;5003541;28;19973;-94
2022/07/04 01:51:13;;;;;;;;;;;;;;;14.09;59.42;101880.91;5004396;28;19945;-92
2022/07/04 01:53:38;;;;;;;;;;;;;;;14.18;58.68;101877.03;5003614;28;19918;-92
2022/07/04 01:56:04;;;;;;;;;;;;;;;14.23;58.85;101878.59;5003829;28;19921;-92
2022/07/04 01:58:29;;;;;;;;;;;;;;;14.19;58.68;101874.31;5005326;28;19921;-92
2022/07/04 02:03:38;;;;;;;;;;;;;;;14.14;59.06;101872.75;5001034;28;20071;-93
2022/07/04 02:06:03;;;;;;;;;;;;;;;14.06;58.90;101874.84;5008720;28;19996;-92
2022/07/04 02:09:14;;;;;;;;;;;;;;;14.14;59.20;101868.31;5007796;28;19913;-92
2022/07/04 02:11:14;;;;;;;;;;;;;;;14.22;58.55;101871.53;5000983;28;19921;-92
2022/07/04 02:13:39;;;;;;;;;;;;;;;14.25;58.33;101879.38;5004932;28;19917;-91
2022/07/04 02:16:04;;;;;;;;;;;;;;;14.23;60.60;101875.94;5006386;28;19953;-92
2022/07/04 02:18:29;;;;;;;;;;;;;;;13.91;62.15;101878.94;4998374;28;19920;-92
2022/07/04 02:20:54;;;;;;;;;;;;;;;13.65;61.90;101872.78;5007461;28;19953;-92
2022/07/04 02:23:19;;;;;;;;;;;;;;;13.53;61.32;101868.81;5005966;28;20012;-92
2022/07/04 02:25:45;;;;;;;;;;;;;;;13.57;61.68;101873.97;5007848;28;20253;-92
2022/07/04 02:28:10;;;;;;;;;;;;;;;13.49;61.43;101876.94;5000570;28;19909;-92
2022/07/04 02:30:35;;;;;;;;;;;;;;;13.33;62.63;101875.72;4990347;28;19917;-93
2022/07/04 02:33:00;;;;;;;;;;;;;;;13.21;63.04;101871.69;5004241;28;19972;-92
2022/07/04 02:35:25;;;;;;;;;;;;;;;13.12;62.94;101878.19;5006584;28;20422;-92
2022/07/04 02:37:51;;;;;;;;;;;;;;;13.13;61.59;101884.34;5007321;28;19924;-92
2022/07/04 02:40:16;;;;;;;;;;;;;;;13.18;63.13;101880.63;5006846;28;19913;-92
2022/07/04 02:42:41;;;;;;;;;;;;;;;13.04;64.44;101880.22;5002436;28;19921;-92
2022/07/04 02:45:07;;;;;;;;;;;;;;;12.89;62.81;101878.94;5006157;28;20315;-91
2022/07/04 02:47:32;;;;;;;;;;;;;;;12.94;62.02;101890.28;5008252;28;19936;-92
2022/07/04 02:50:01;;;;;;;;;;;;;;;13.05;61.90;101886.41;5007499;28;19968;-92
2022/07/04 02:52:27;;;;;;;;;;;;;;;13.11;63.96;101881.75;4997750;28;19920;-92
2022/07/04 02:54:52;;;;;;;;;;;;;;;12.98;64.60;101889.25;5005749;28;20000;-92
2022/07/04 02:57:18;;;;;;;;;;;;;;;12.87;64.78;101882.56;5006014;28;19913;-92
2022/07/04 02:59:43;;;;;;;;;;;;;;;12.82;63.49;101887.16;5000455;28;19960;-92
2022/07/04 03:02:08;;;;;;;;;;;;;;;12.77;65.03;101887.31;5000060;28;20387;-92
2022/07/04 03:04:34;;;;;;;;;;;;;;;12.65;67.47;101885.06;5006340;28;19928;-93
2022/07/04 03:06:59;;;;;;;;;;;;;;;12.54;65.67;101885.38;5009524;28;19921;-91
2022/07/04 03:09:27;;;;;;;;;;;;;;;12.44;68.06;101891.91;5010802;28;19920;-93
2022/07/04 03:11:52;;;;;;;;;;;;;;;12.36;66.69;101892.16;5002755;28;20398;-92
2022/07/04 03:14:17;;;;;;;;;;;;;;;12.39;66.42;101896.47;5011193;28;19996;-90
2022/07/04 03:16:42;;;;;;;;;;;;;;;12.36;65.22;101902.75;5007850;28;19976;-92
2022/07/04 03:19:08;;;;;;;;;;;;;;;12.46;66.25;101904.22;5011846;28;20383;-93
2022/07/04 03:21:33;;;;;;;;;;;;;;;12.52;64.42;101913.75;5011420;28;19921;-92
2022/07/04 03:23:58;;;;;;;;;;;;;;;12.47;65.83;101913.03;5008948;28;19967;-93
2022/07/04 03:26:29;;;;;;;;;;;;;;;12.44;66.18;101908.69;5006859;28;19926;-92
2022/07/04 03:28:54;;;;;;;;;;;;;;;12.37;66.94;101908.94;5003562;28;19917;-91
2022/07/04 03:31:19;;;;;;;;;;;;;;;12.35;68.12;101913.41;5007436;28;19951;-92
2022/07/04 03:33:45;;;;;;;;;;;;;;;12.31;69.37;101909.09;5004889;28;19919;-92
2022/07/04 03:36:10;;;;;;;;;;;;;;;12.31;67.06;101915.31;5010783;28;20028;-92
2022/07/04 03:38:36;;;;;;;;;;;;;;;12.32;66.18;101911.72;5008449;28;20339;-91
2022/07/04 03:41:01;;;;;;;;;;;;;;;12.32;66.64;101916.16;5008736;28;20012;-92
2022/07/04 03:43:26;;;;;;;;;;;;;;;12.35;67.03;101916.91;5010634;28;19949;-91
2022/07/04 03:45:51;;;;;;;;;;;;;;;12.43;64.82;101920.22;5005125;28;19914;-92
2022/07/04 03:48:17;;;;;;;;;;;;;;;12.52;64.32;101924.38;5010071;28;19917;-91
2022/07/04 03:50:42;;;;;;;;;;;;;;;12.59;64.36;101931.22;5005726;28;20138;-92
2022/07/04 03:53:07;;;;;;;;;;;;;;;12.58;64.17;101934.78;5009051;28;19920;-91
2022/07/04 03:55:32;;;;;;;;;;;;;;;12.67;62.84;101938.94;5008271;28;19914;-91
2022/07/04 03:57:57;;;;;;;;;;;;;;;12.74;62.65;101940.50;4994408;28;19917;-92
2022/07/04 04:00:23;;;;;;;;;;;;;;;12.72;63.21;101940.53;5007350;28;19917;-91
2022/07/04 04:02:48;;;;;;;;;;;;;;;12.66;62.67;101946.03;5008106;28;19965;-93
2022/07/04 04:05:30;;;;;;;;;;;;;;;12.65;63.52;101941.66;5008528;28;19994;-91
2022/07/04 04:07:59;;;;;;;;;;;;;;;12.65;65.25;101952.25;5010741;28;19913;-91
2022/07/04 04:10:26;;;;;;;;;;;;;;;12.73;64.54;101952.91;5009411;28;20249;-92
2022/07/04 04:12:51;;;;;;;;;;;;;;;12.79;66.23;101958.94;5007979;28;19964;-91
2022/07/04 04:15:17;;;;;;;;;;;;;;;12.73;67.33;101952.03;5007479;28;19983;-90
2022/07/04 04:17:42;;;;;;;;;;;;;;;12.76;65.91;101943.94;5004835;28;19914;-91
2022/07/04 04:20:08;;;;;;;;;;;;;;;12.91;67.20;101937.28;5008311;28;19913;-91
2022/07/04 04:22:33;;;;;;;;;;;;;;;13.02;65.51;101940.47;5009238;28;19921;-92
2022/07/04 04:24:59;;;;;;;;;;;;;;;13.11;65.29;101948.13;5008768;28;19917;-91
2022/07/04 04:27:24;;;;;;;;;;;;;;;13.20;64.07;101954.94;5008887;28;20056;-91
2022/07/04 04:29:49;;;;;;;;;;;;;;;13.23;64.68;101949.53;5008798;28;19914;-92
2022/07/04 04:32:14;;;;;;;;;;;;;;;13.20;67.40;101970.88;5006172;28;19913;-91
2022/07/04 04:34:40;;;;;;;;;;;;;;;13.08;67.00;101964.16;5010428;28;19913;-91
2022/07/04 04:37:05;;;;;;;;;;;;;;;13.10;65.81;101972.94;5002631;28;19976;-91
2022/07/04 04:39:30;;;;;;;;;;;;;;;13.21;67.38;101973.47;5007043;28;19913;-91
2022/07/04 04:41:55;;;;;;;;;;;;;;;13.38;66.30;101974.72;5007807;28;19917;-91
2022/07/04 04:44:21;;;;;;;;;;;;;;;13.50;66.65;101971.66;5009895;28;20427;-91
2022/07/04 04:46:46;;;;;;;;;;;;;;;13.59;65.61;101968.66;5017653;28;19920;-91
2022/07/04 04:49:11;;;;;;;;;;;;;;;13.64;66.48;101966.72;5013129;28;19914;-91
2022/07/04 04:51:36;;;;;;;;;;;;;;;13.70;65.09;101963.84;5005479;28;19917;-90
2022/07/04 04:54:02;;;;;;;;;;;;;;;13.76;65.80;101963.66;5006745;28;19913;-91
2022/07/04 04:56:27;;;;;;;;;;;;;;;13.81;64.70;101958.16;5009033;28;19952;-90
2022/07/04 04:58:52;;;;;;;;;;;;;;;13.91;64.72;101959.56;5006682;28;20296;-90
2022/07/04 05:01:17;;;;;;;;;;;;;;;13.98;64.32;101952.22;5008167;28;19959;-91
2022/07/04 05:03:43;;;;;;;;;;;;;;;14.06;63.44;101949.28;5007989;28;19917;-91
2022/07/04 05:06:08;;;;;;;;;;;;;;;14.11;62.73;101950.84;5004090;28;20277;-91
2022/07/04 05:08:33;;;;;;;;;;;;;;;14.20;65.02;101954.97;5004944;28;20348;-91
2022/07/04 05:10:58;;;;;;;;;;;;;;;14.25;64.78;101955.66;5005704;28;20001;-91
2022/07/04 05:13:24;;;;;;;;;;;;;;;14.30;65.06;101949.22;5007198;28;19979;-91
2022/07/04 05:15:49;;;;;;;;;;;;;;;14.37;61.05;101954.34;5001587;28;20043;-91
2022/07/04 05:18:15;;;;;;;;;;;;;;;14.46;65.53;101953.97;5008872;28;19924;-91
2022/07/04 05:20:41;;;;;;;;;;;;;;;14.53;66.82;101953.69;4991038;28;20016;-91
2022/07/04 05:23:06;;;;;;;;;;;;;;;14.60;65.86;101949.03;5009341;28;20004;-91
2022/07/04 05:25:32;;;;;;;;;;;;;;;14.67;63.54;101953.16;5009981;28;20012;-91
2022/07/04 05:27:57;;;;;;;;;;;;;;;14.74;63.23;101945.81;5004958;28;20359;-90
2022/07/04 05:30:22;;;;;;;;;;;;;;;14.80;61.89;101949.09;4999678;28;19959;-91
2022/07/04 05:32:48;;;;;;;;;;;;;;;14.88;66.77;101942.59;5003669;28;19917;-91
2022/07/04 05:35:13;;;;;;;;;;;;;;;14.97;64.79;101951.09;5008942;28;20491;-90
2022/07/04 05:37:38;;;;;;;;;;;;;;;15.05;68.43;101959.59;5003941;28;19917;-91
2022/07/04 05:40:04;;;;;;;;;;;;;;;15.16;64.89;101956.53;5004497;28;19960;-91
2022/07/04 05:42:29;;;;;;;;;;;;;;;15.24;65.88;101956.19;5002904;28;20376;-90
2022/07/04 05:44:54;;;;;;;;;;;;;;;15.32;64.55;101962.06;5009801;28;19909;-91
2022/07/04 05:47:23;;;;;;;;;;;;;;;15.41;62.73;101963.47;5009743;28;19917;-91
2022/07/04 05:49:48;;;;;;;;;;;;;;;15.49;64.50;101962.22;5003187;28;19917;-91
2022/07/04 05:52:13;;;;;;;;;;;;;;;15.58;67.70;101968.97;5003807;28;19944;-92
2022/07/04 05:54:39;;;;;;;;;;;;;;;15.65;68.62;101962.44;5009707;28;19974;-91
2022/07/04 05:57:04;;;;;;;;;;;;;;;15.74;66.51;101959.38;5005862;28;19917;-91
2022/07/04 05:59:29;;;;;;;;;;;;;;;15.85;65.87;101964.22;5002379;28;20468;-91
2022/07/04 06:01:54;;;;;;;;;;;;;;;15.93;63.97;101964.75;5005587;28;19913;-91
2022/07/04 06:04:20;;;;;;;;;;;;;;;16.02;65.24;101968.81;5006719;28;19917;-91
2022/07/04 06:06:45;;;;;;;;;;;;;;;16.13;65.32;101977.19;5007071;28;19920;-90
2022/07/04 06:09:10;;;;;;;;;;;;;;;16.20;66.00;101973.34;5007222;28;20344;-91
2022/07/04 06:11:35;;;;;;;;;;;;;;;16.29;64.39;101975.59;5006593;28;19917;-92
2022/07/04 06:14:01;;;;;;;;;;;;;;;16.38;64.93;101968.97;5010029;28;19921;-90
2022/07/04 06:16:26;;;;;;;;;;;;;;;16.50;64.85;101959.50;5003151;28;19913;-91
2022/07/04 06:18:51;;;;;;;;;;;;;;;16.67;66.04;101970.25;5004172;28;19917;-90
2022/07/04 06:21:16;;;;;;;;;;;;;;;16.86;64.65;101964.91;5003544;28;19914;-90
2022/07/04 06:23:41;;;;;;;;;;;;;;;17.06;64.34;101969.28;5009233;28;20007;-90
2022/07/04 06:26:07;;;;;;;;;;;;;;;17.25;63.11;101974.56;5006558;28;19974;-90
2022/07/04 06:28:32;;;;;;;;;;;;;;;17.36;62.08;101966.91;5005359;28;20265;-90
2022/07/04 06:30:57;;;;;;;;;;;;;;;17.57;63.19;101972.94;5002479;28;19928;-90
2022/07/04 06:33:23;;;;;;;;;;;;;;;17.75;62.06;101969.34;5007580;28;19921;-89
2022/07/04 06:35:54;;;;;;;;;;;;;;;17.87;62.45;101975.03;5011147;28;20347;-89
2022/07/04 06:38:20;;;;;;;;;;;;;;;17.87;61.47;101977.69;5005019;28;20032;-89
2022/07/04 06:40:46;;;;;;;;;;;;;;;17.90;62.04;101974.84;5007280;28;19925;-89
2022/07/04 06:43:11;;;;;;;;;;;;;;;17.98;61.05;101970.81;5007435;28;20366;-89
2022/07/04 06:45:36;;;;;;;;;;;;;;;18.19;61.27;101984.03;5006225;28;19917;-89
2022/07/04 06:48:03;;;;;;;;;;;;;;;18.22;61.77;101976.66;5006948;28;19917;-89
2022/07/04 06:50:32;;;;;;;;;;;;;;;18.39;61.70;101975.75;5005249;28;19921;-89
2022/07/04 06:52:57;;;;;;;;;;;;;;;18.76;61.63;101965.72;5008888;28;20435;-90
2022/07/04 06:55:22;;;;;;;;;;;;;;;18.97;59.79;101974.31;5008110;28;19991;-89
2022/07/04 06:57:47;;;;;;;;;;;;;;;19.04;59.22;101984.63;5007983;28;19924;-89
2022/07/04 07:00:13;;;;;;;;;;;;;;;19.11;59.82;101969.03;5008226;28;19982;-89
2022/07/04 07:02:38;;;;;;;;;;;;;;;19.30;59.77;101975.03;5006620;28;19914;-90
2022/07/04 07:05:04;;;;;;;;;;;;;;;19.46;58.77;101968.78;5006057;28;19929;-89
2022/07/04 07:07:29;;;;;;;;;;;;;;;19.34;58.08;101971.22;5006262;28;20291;-89
2022/07/04 07:09:55;;;;;;;;;;;;;;;19.23;57.90;101962.97;5005888;28;19924;-91
2022/07/04 07:12:23;;;;;;;;;;;;;;;19.02;58.45;101956.16;5003667;28;20048;-90
2022/07/04 07:14:49;;;;;;;;;;;;;;;19.08;58.65;101961.19;5005122;28;19918;-89
2022/07/04 07:17:15;;;;;;;;;;;;;;;19.22;58.04;101960.38;5004088;28;19928;-89
2022/07/04 07:19:41;;;;;;;;;;;;;;;19.46;58.26;101972.34;5006715;28;19909;-89
2022/07/04 07:22:06;;;;;;;;;;;;;;;19.62;57.43;101962.44;5003602;28;19960;-90
2022/07/04 07:24:32;;;;;;;;;;;;;;;19.82;57.37;101958.56;5006839;28;19913;-89
2022/07/04 07:26:57;;;;;;;;;;;;;;;20.04;57.15;101959.91;5008189;28;19910;-89
2022/07/04 07:29:22;;;;;;;;;;;;;;;20.12;56.63;101968.34;5007590;28;19917;-90
2022/07/04 07:31:48;;;;;;;;;;;;;;;20.13;55.94;101964.69;5003892;28;19952;-89
2022/07/04 07:34:13;;;;;;;;;;;;;;;20.30;55.38;101969.03;5005335;28;19928;-90
2022/07/04 07:36:38;;;;;;;;;;;;;;;20.49;55.46;101976.81;5006135;28;20009;-90
2022/07/04 07:39:03;;;;;;;;;;;;;;;21.07;53.61;101981.94;5007114;28;19914;-89
2022/07/04 07:41:28;;;;;;;;;;;;;;;21.40;53.95;101977.97;5005263;28;19967;-89
2022/07/04 07:43:54;;;;;;;;;;;;;;;22.11;52.50;101980.25;5004003;28;19913;-90
2022/07/04 07:46:19;;;;;;;;;;;;;;;22.78;50.84;101979.91;5005516;28;20060;-90
2022/07/04 07:48:44;;;;;;;;;;;;;;;23.24;49.24;101973.81;5004105;28;19917;-91
2022/07/04 07:51:10;;;;;;;;;;;;;;;23.61;48.40;101969.16;5000995;28;20392;-90
2022/07/04 07:53:35;;;;;;;;;;;;;;;23.84;46.98;101955.75;5009821;28;20401;-89
2022/07/04 07:56:00;;;;;;;;;;;;;;;24.03;47.45;101958.72;5009656;28;19949;-90
2022/07/04 07:58:26;;;;;;;;;;;;;;;24.13;46.08;101958.84;5008903;28;19918;-90
2022/07/04 08:00:51;;;;;;;;;;;;;;;24.62;46.50;101950.38;5003769;28;19921;-90
2022/07/04 08:06:00;;;;;;;;;;;;;;;25.47;43.36;101949.59;5007947;28;19919;-90
2022/07/04 08:08:25;;;;;;;;;;;;;;;25.57;41.76;101942.38;5008081;28;19913;-91
2022/07/04 08:10:50;;;;;;;;;;;;;;;25.72;43.49;101939.34;5004215;28;20278;-91
2022/07/04 08:13:16;;;;;;;;;;;;;;;25.87;43.70;101947.00;5014624;28;20436;-90
2022/07/04 08:15:41;;;;;;;;;;;;;;;26.21;42.12;101946.75;5011896;28;19916;-90
2022/07/04 08:18:06;;;;;;;;;;;;;;;26.26;38.49;101947.19;5013475;28;20356;-90
2022/07/04 08:20:31;;;;;;;;;;;;;;;25.68;40.66;101946.88;5013802;28;19917;-91
2022/07/04 08:22:56;;;;;;;;;;;;;;;25.91;41.84;101963.84;5007747;28;20339;-90
2022/07/04 08:25:22;;;;;;;;;;;;;;;26.47;40.48;101962.56;5008389;28;19915;-91
2022/07/04 08:27:47;;;;;;;;;;;;;;;26.80;40.63;101969.50;5011066;28;20312;-91
2022/07/04 08:30:12;;;;;;;;;;;;;;;26.97;38.44;101966.13;5010981;28;20358;-89
2022/07/04 08:32:38;;;;;;;;;;;;;;;26.89;36.96;101969.53;5009412;28;19914;-90
2022/07/04 08:35:04;;;;;;;;;;;;;;;26.69;37.77;101971.34;5005475;28;20363;-90
2022/07/04 08:37:29;;;;;;;;;;;;;;;26.61;38.98;101971.16;5007323;28;20440;-89
2022/07/04 08:39:54;;;;;;;;;;;;;;;26.86;35.94;101969.81;5008312;28;20292;-89
2022/07/04 08:42:20;;;;;;;;;;;;;;;26.98;38.22;101967.81;5003983;28;19917;-89
2022/07/04 08:44:50;;;;;;;;;;;;;;;27.11;37.55;101968.44;5009984;28;19955;-90
2022/07/04 08:47:17;;;;;;;;;;;;;;;27.13;36.79;101960.13;5004319;28;19924;-90
2022/07/04 08:49:44;;;;;;;;;;;;;;;27.28;37.21;101975.03;5011055;28;20624;-90
2022/07/04 08:52:10;;;;;;;;;;;;;;;27.38;37.62;101967.72;5010220;28;19917;-90
2022/07/04 09:00:06;;;;;;;;;;;;;;;27.08;37.23;101982.28;5007794;28;19964;-89
2022/07/04 09:02:32;;;;;;;;;;;;;;;26.71;38.83;101973.91;5009409;28;20337;-91
2022/07/04 09:04:59;;;;;;;;;;;;;;;27.03;38.13;101965.53;5011691;28;19918;-90
2022/07/04 09:07:26;;;;;;;;;;;;;;;26.82;37.09;101972.94;5005332;28;19917;-90
2022/07/04 09:09:51;;;;;;;;;;;;;;;26.55;38.17;101979.88;5005539;28;19940;-91
2022/07/04 09:12:17;;;;;;;;;;;;;;;26.56;38.16;101972.59;5008523;28;20304;-91
2022/07/04 09:14:42;;;;;;;;;;;;;;;26.37;38.68;101973.34;5007568;28;19914;-91
2022/07/04 09:17:07;;;;;;;;;;;;;;;26.45;40.09;101968.13;5006734;28;19921;-91
2022/07/04 09:19:33;;;;;;;;;;;;;;;26.87;39.22;101967.97;5007750;28;19913;-90
2022/07/04 09:22:07;;;;;;;;;;;;;;;27.07;37.98;101966.97;5008818;28;19913;-91
2022/07/04 09:24:48;;;;;;;;;;;;;;;26.93;39.17;101976.38;5002188;28;20278;-91
2022/07/04 09:27:29;;;;;;;;;;;;;;;26.80;38.64;101974.94;5006271;28;19917;-90
2022/07/04 09:29:54;;;;;;;;;;;;;;;26.89;38.32;101964.09;5008030;28;19914;-92
2022/07/04 09:32:23;;;;;;;;;;;;;;;27.10;38.39;101982.16;5008891;28;19921;-92
2022/07/04 09:34:55;;;;;;;;;;;;;;;27.17;38.16;101964.28;5008504;28;20360;-92
2022/07/04 09:37:20;;;;;;;;;;;;;;;27.06;37.76;101969.84;5000886;28;19997;-91
2022/07/04 09:39:45;;;;;;;;;;;;;;;26.76;38.93;101977.06;5009262;28;19999;-91
2022/07/04 09:42:10;;;;;;;;;;;;;;;26.55;38.50;101966.31;4994880;28;19914;-91
2022/07/04 09:44:36;;;;;;;;;;;;;;;26.62;38.18;101969.31;5008029;28;20032;-92
2022/07/04 09:47:19;;;;;;;;;;;;;;;26.58;39.11;101967.88;5011087;28;19964;-91
2022/07/04 09:49:57;;;;;;;;;;;;;;;26.91;38.53;101958.53;5006742;28;19919;-91
2022/07/04 09:52:22;;;;;;;;;;;;;;;27.16;37.58;101959.88;5009825;28;20419;-91
2022/07/04 09:54:48;;;;;;;;;;;;;;;27.13;37.25;101977.28;5005385;28;20012;-91
2022/07/04 09:57:21;;;;;;;;;;;;;;;27.30;37.10;101961.28;5006918;28;19913;-93
2022/07/04 09:59:46;;;;;;;;;;;;;;;27.41;37.51;101955.69;5009000;28;19913;-92
2022/07/04 10:02:13;;;;;;;;;;;;;;;27.57;37.54;101960.56;5007541;28;20435;-92
2022/07/04 10:04:48;;;;;;;;;;;;;;;27.75;36.19;101961.56;5006724;28;19917;-91
2022/07/04 10:07:36;;;;;;;;;;;;;;;27.80;37.24;101952.97;5003407;28;19914;-90
2022/07/04 10:10:21;;;;;;;;;;;;;;;27.91;36.59;101953.63;5015071;28;19913;-91
2022/07/04 10:12:48;;;;;;;;;;;;;;;27.81;36.65;101957.41;5016535;28;19956;-91
2022/07/04 10:15:13;;;;;;;;;;;;;;;27.96;36.26;101964.06;5018762;28;19988;-91
2022/07/04 10:17:39;;;;;;;;;;;;;;;28.09;36.14;101956.44;5019132;28;19952;-92
2022/07/04 10:20:05;;;;;;;;;;;;;;;28.20;35.21;101958.09;5002232;28;19917;-92
2022/07/04 10:22:30;;;;;;;;;;;;;;;28.03;35.27;101953.47;5010992;28;19917;-91
2022/07/04 10:24:55;;;;;;;;;;;;;;;27.97;35.90;101953.03;5007661;28;20024;-92
2022/07/04 10:27:20;;;;;;;;;;;;;;;28.17;35.45;101950.28;5008989;28;19917;-91
2022/07/04 10:29:46;;;;;;;;;;;;;;;28.32;35.39;101945.19;5008553;28;19917;-92
2022/07/04 10:32:11;;;;;;;;;;;;;;;28.18;35.51;101947.41;5010101;28;19917;-92
2022/07/04 10:34:41;;;;;;;;;;;;;;;28.11;35.21;101934.53;5006107;28;20285;-92
2022/07/04 10:37:06;;;;;;;;;;;;;;;28.10;35.46;101932.81;5007918;28;19929;-91
2022/07/04 10:39:32;;;;;;;;;;;;;;;28.13;35.83;101940.69;5006434;28;19917;-91
2022/07/04 10:41:59;;;;;;;;;;;;;;;28.30;35.15;101928.16;5008655;28;19956;-92
2022/07/04 10:44:26;;;;;;;;;;;;;;;28.78;35.04;101946.94;5007589;28;19947;-92
2022/07/04 10:46:52;;;;;;;;;;;;;;;29.08;34.26;101934.84;5003745;28;19961;-92
2022/07/04 10:49:19;;;;;;;;;;;;;;;28.65;34.62;101938.31;5007745;28;19920;-92
2022/07/04 10:51:45;;;;;;;;;;;;;;;28.48;34.35;101929.94;5008734;28;19917;-92
2022/07/04 10:54:34;;;;;;;;;;;;;;;28.39;33.56;101932.72;5008229;28;20390;-92
2022/07/04 10:57:09;;;;;;;;;;;;;;;28.09;34.66;101928.41;4998338;28;20368;-93
2022/07/04 10:59:34;;;;;;;;;;;;;;;28.12;35.02;101925.38;5006605;28;19917;-93
2022/07/04 11:02:05;;;;;;;;;;;;;;;27.94;35.24;101920.72;5008873;28;19914;-92
2022/07/04 11:04:47;;;;;;;;;;;;;;;27.78;36.00;101923.19;5005507;28;19917;-94
2022/07/04 11:07:12;;;;;;;;;;;;;;;28.03;35.84;101927.16;5003553;28;20350;-92
2022/07/04 11:09:37;;;;;;;;;;;;;;;28.58;34.42;101926.31;5006734;28;19913;-92
2022/07/04 11:12:04;;;;;;;;;;;;;;;28.77;33.52;101923.44;5004776;28;19926;-93
2022/07/04 11:14:32;;;;;;;;;;;;;;;28.90;34.27;101923.91;4989690;28;19917;-93
2022/07/04 11:16:58;;;;;;;;;;;;;;;28.85;33.76;101922.69;4990758;28;20284;-93
2022/07/04 11:19:23;;;;;;;;;;;;;;;28.82;34.09;101922.97;5002709;28;19914;-92
2022/07/04 11:21:48;;;;;;;;;;;;;;;28.72;33.84;101920.34;5000979;28;20004;-94
2022/07/04 11:24:14;;;;;;;;;;;;;;;28.07;34.63;101917.69;5006543;28;19952;-93
2022/07/04 11:26:39;;;;;;;;;;;;;;;27.90;35.18;101921.19;5005113;28;19932;-92
2022/07/04 11:29:04;;;;;;;;;;;;;;;28.05;35.10;101916.97;5012469;28;19921;-93
2022/07/04 11:31:40;;;;;;;;;;;;;;;27.85;35.39;101916.19;5012136;28;19924;-93
2022/07/04 11:34:05;;;;;;;;;;;;;;;27.43;35.18;101918.41;5013591;28;19967;-93
2022/07/04 11:36:31;;;;;;;;;;;;;;;27.67;35.31;101917.91;5010296;28;19913;-92
2022/07/04 11:38:57;;;;;;;;;;;;;;;28.13;35.01;101914.34;5011550;28;19972;-91
2022/07/04 11:47:03;;;;;;;;;;;;;;;28.79;35.18;101918.72;5013062;28;19967;-93
2022/07/04 11:49:29;;;;;;;;;;;;;;;28.71;35.16;101913.19;5011920;28;19913;-93
2022/07/04 11:51:55;;;;;;;;;;;;;;;28.60;35.53;101907.97;5010043;28;20411;-92
2022/07/04 11:54:21;;;;;;;;;;;;;;;28.36;36.47;101912.13;4990783;28;19914;-92
2022/07/04 11:56:46;;;;;;;;;;;;;;;28.22;35.79;101899.00;4995075;28;19917;-93
2022/07/04 11:59:13;;;;;;;;;;;;;;;28.28;36.11;101897.53;5008281;28;19921;-92
2022/07/04 12:01:38;;;;;;;;;;;;;;;28.35;35.92;101899.53;5010117;28;20219;-92
2022/07/04 12:04:12;;;;;;;;;;;;;;;28.63;35.66;101894.91;5010344;28;19917;-92
2022/07/04 12:06:38;;;;;;;;;;;;;;;29.10;34.22;101892.00;5007303;28;19918;-91
2022/07/04 12:09:03;;;;;;;;;;;;;;;29.20;35.27;101900.91;5008412;28;20565;-92
2022/07/04 12:11:47;;;;;;;;;;;;;;;28.95;34.51;101897.13;5012364;28;19936;-92
2022/07/04 12:14:13;;;;;;;;;;;;;;;29.15;34.50;101894.25;5007249;28;19913;-92
2022/07/04 12:16:38;;;;;;;;;;;;;;;29.39;35.05;101904.47;5013967;28;20036;-93
2022/07/04 12:19:10;;;;;;;;;;;;;;;29.57;33.89;101894.41;5012889;28;19908;-92
2022/07/04 12:21:36;;;;;;;;;;;;;;;29.64;33.11;101892.75;5008248;28;19917;-94
2022/07/04 12:24:03;;;;;;;;;;;;;;;29.89;34.16;101901.94;5010625;28;20292;-92
2022/07/04 12:26:29;;;;;;;;;;;;;;;30.02;33.30;101895.16;5010708;28;19913;-92
2022/07/04 12:28:56;;;;;;;;;;;;;;;29.96;32.65;101902.97;5007731;28;20071;-93
2022/07/04 12:31:37;;;;;;;;;;;;;;;29.79;32.51;101898.44;5006910;28;20320;-93
2022/07/04 12:34:02;;;;;;;;;;;;;;;29.49;31.67;101891.59;5009972;28;19920;-94
2022/07/04 12:36:27;;;;;;;;;;;;;;;29.18;32.72;101894.75;5008502;28;19917;-92
2022/07/04 12:38:54;;;;;;;;;;;;;;;28.91;33.58;101897.53;5006452;28;20287;-93
2022/07/04 12:41:28;;;;;;;;;;;;;;;28.67;32.84;101898.16;5007267;28;19914;-92
2022/07/04 12:43:54;;;;;;;;;;;;;;;28.61;33.21;101893.34;5011173;28;19925;-92
2022/07/04 12:46:30;;;;;;;;;;;;;;;29.14;32.80;101884.34;4997958;28;20315;-91
2022/07/04 12:48:57;;;;;;;;;;;;;;;29.51;32.52;101891.44;5010188;28;19917;-93